Time;durP1;ratioP1;P1;durP2;ratioP2;P2;SDS_P1;SDS_P2;PMS_P1;PMS_P2;Temp;Humidity;BMP_temperature;BMP_pressure;BME280_temperature;BME280_humidity;BME280_pressure;Samples;Min_cycle;Max_cycle;Signal;HPM_P1;HPM_P2
2022/09/29 00:01:09;;;;;;;9.20;6.07;;;9.90;99.90;;;;;;5081253;28;20454;-70
2022/09/29 00:03:37;;;;;;;8.10;6.30;;;9.80;99.90;;;;;;5082232;28;20473;-69
2022/09/29 00:06:04;;;;;;;7.47;6.27;;;9.80;99.90;;;;;;5081559;28;20482;-69
2022/09/29 00:08:31;;;;;;;7.23;6.27;;;9.70;99.90;;;;;;5082050;28;20550;-69
2022/09/29 00:10:58;;;;;;;7.63;6.83;;;9.70;99.90;;;;;;5082129;28;20549;-70
2022/09/29 00:13:25;;;;;;;10.43;6.67;;;9.70;99.90;;;;;;5080615;28;20549;-69
2022/09/29 00:15:56;;;;;;;8.37;6.50;;;9.70;99.90;;;;;;5080483;28;20537;-69
2022/09/29 00:18:25;;;;;;;12.30;7.53;;;9.60;99.90;;;;;;5081195;28;20467;-70
2022/09/29 00:21:02;;;;;;;7.80;6.60;;;9.60;99.90;;;;;;5081338;28;20552;-69
2022/09/29 00:23:31;;;;;;;12.23;7.87;;;9.50;99.90;;;;;;5079980;28;20521;-69
2022/09/29 00:26:04;;;;;;;9.17;6.50;;;9.50;99.90;;;;;;5078946;28;20484;-69
2022/09/29 00:28:31;;;;;;;8.87;6.87;;;9.50;99.90;;;;;;5078322;28;20521;-69
2022/09/29 00:30:59;;;;;;;8.17;6.17;;;9.50;99.90;;;;;;5079016;28;20454;-69
2022/09/29 00:33:30;;;;;;;10.27;6.70;;;9.50;99.90;;;;;;5078244;28;20450;-69
2022/09/29 00:35:58;;;;;;;9.93;7.20;;;9.50;99.90;;;;;;5076922;28;20443;-69
2022/09/29 00:38:26;;;;;;;9.23;7.07;;;9.50;99.90;;;;;;5075848;28;21081;-69
2022/09/29 00:40:53;;;;;;;9.17;6.70;;;9.50;99.90;;;;;;5076877;28;20454;-69
2022/09/29 00:43:22;;;;;;;9.60;7.23;;;9.50;99.90;;;;;;5076047;28;20454;-69
2022/09/29 00:45:51;;;;;;;8.47;7.13;;;9.50;99.90;;;;;;5075802;28;20450;-70
2022/09/29 00:48:21;;;;;;;7.87;7.03;;;9.50;99.90;;;;;;5075689;28;20875;-69
2022/09/29 00:50:53;;;;;;;11.87;8.20;;;9.50;99.90;;;;;;5075614;28;20442;-69
2022/09/29 00:53:21;;;;;;;10.60;6.90;;;9.50;99.90;;;;;;5075798;28;20439;-69
2022/09/29 00:55:51;;;;;;;9.83;6.50;;;9.50;99.90;;;;;;5075829;28;20541;-70
2022/09/29 00:58:27;;;;;;;9.87;7.10;;;9.50;99.90;;;;;;5075548;28;20464;-70
2022/09/29 01:00:54;;;;;;;10.40;7.47;;;9.50;99.90;;;;;;5075528;28;20442;-69
2022/09/29 01:03:23;;;;;;;11.50;6.40;;;9.50;99.90;;;;;;5075286;28;20914;-70
2022/09/29 01:05:57;;;;;;;8.70;6.13;;;9.50;99.90;;;;;;5075981;28;20482;-69
2022/09/29 01:08:29;;;;;;;9.17;7.00;;;9.50;99.90;;;;;;5075338;28;20770;-69
2022/09/29 01:10:57;;;;;;;10.77;7.17;;;9.50;99.90;;;;;;5076391;28;20773;-69
2022/09/29 01:13:25;;;;;;;8.50;6.30;;;9.50;99.90;;;;;;5075635;28;20457;-70
2022/09/29 01:15:52;;;;;;;11.13;6.67;;;9.50;99.90;;;;;;5075310;28;20477;-71
2022/09/29 01:18:19;;;;;;;9.33;7.17;;;9.50;99.90;;;;;;5075886;28;20461;-70
2022/09/29 01:20:56;;;;;;;8.73;6.97;;;9.50;99.90;;;;;;5075076;28;20455;-69
2022/09/29 01:24:06;;;;;;;10.13;6.53;;;9.50;99.90;;;;;;5074719;28;20438;-70
2022/09/29 01:27:01;;;;;;;10.40;7.30;;;9.40;99.90;;;;;;5075102;28;20438;-68
2022/09/29 01:30:08;;;;;;;8.33;6.80;;;9.40;99.90;;;;;;5067218;28;20493;-69
2022/09/29 01:33:03;;;;;;;10.90;6.83;;;9.40;99.90;;;;;;5074290;28;20442;-69
2022/09/29 01:35:37;;;;;;;10.30;6.90;;;9.30;99.90;;;;;;5071826;28;20549;-69
2022/09/29 01:38:14;;;;;;;7.80;6.80;;;9.30;99.90;;;;;;5074329;28;20530;-69
2022/09/29 01:40:49;;;;;;;7.80;6.60;;;9.30;99.90;;;;;;5074195;28;20449;-69
2022/09/29 01:43:20;;;;;;;16.47;7.53;;;9.30;99.90;;;;;;5074974;28;20449;-69
2022/09/29 01:45:51;;;;;;;11.97;7.30;;;9.30;99.90;;;;;;5074086;28;20754;-69
2022/09/29 01:48:24;;;;;;;10.10;7.10;;;9.30;99.90;;;;;;5074188;28;20439;-69
2022/09/29 01:50:55;;;;;;;11.17;7.00;;;9.30;99.90;;;;;;5074374;28;20525;-69
2022/09/29 01:53:28;;;;;;;10.70;7.37;;;9.30;99.90;;;;;;5074494;28;20487;-69
2022/09/29 01:56:01;;;;;;;8.53;7.00;;;9.30;99.90;;;;;;5074420;28;20445;-69
2022/09/29 01:58:35;;;;;;;8.93;7.00;;;9.30;99.90;;;;;;5073857;28;20907;-69
2022/09/29 02:01:07;;;;;;;7.13;5.93;;;9.30;99.90;;;;;;5075150;28;20483;-69
2022/09/29 02:03:40;;;;;;;9.83;6.67;;;9.30;99.90;;;;;;5074230;28;20766;-69
2022/09/29 02:06:11;;;;;;;8.93;6.80;;;9.30;99.90;;;;;;5074211;28;20477;-69
2022/09/29 02:08:42;;;;;;;10.00;7.50;;;9.30;99.90;;;;;;5073954;28;20434;-69
2022/09/29 02:11:12;;;;;;;8.93;6.80;;;9.30;99.90;;;;;;5077832;28;20442;-69
2022/09/29 02:13:44;;;;;;;8.20;7.23;;;9.30;99.90;;;;;;5078314;28;20458;-69
2022/09/29 02:16:14;;;;;;;12.30;6.90;;;9.30;99.90;;;;;;5078780;28;20473;-69
2022/09/29 02:18:48;;;;;;;10.93;7.43;;;9.30;99.90;;;;;;5079715;28;20508;-70
2022/09/29 02:21:15;;;;;;;10.33;7.37;;;9.30;99.90;;;;;;5079225;28;20837;-70
2022/09/29 02:23:42;;;;;;;10.13;7.00;;;9.30;99.90;;;;;;5078640;28;20549;-69
2022/09/29 02:26:10;;;;;;;8.80;7.63;;;9.30;99.90;;;;;;5078500;28;20458;-69
2022/09/29 02:28:37;;;;;;;11.43;8.30;;;9.40;99.90;;;;;;5078519;28;20454;-69
2022/09/29 02:31:05;;;;;;;8.73;7.10;;;9.40;99.90;;;;;;5078139;28;20501;-69
2022/09/29 02:33:31;;;;;;;8.50;6.57;;;9.40;99.90;;;;;;5078397;28;20816;-69
2022/09/29 02:36:15;;;;;;;11.30;7.40;;;9.40;99.90;;;;;;5078091;28;20454;-69
2022/09/29 02:38:48;;;;;;;8.93;7.30;;;9.40;99.90;;;;;;5078281;28;20883;-70
2022/09/29 02:41:29;;;;;;;10.53;7.57;;;9.40;99.90;;;;;;5078114;28;20810;-70
2022/09/29 02:44:20;;;;;;;12.30;7.90;;;9.50;99.90;;;;;;5078333;28;20454;-70
2022/09/29 02:47:08;;;;;;;9.03;7.17;;;9.50;99.90;;;;;;5077875;28;20956;-70
2022/09/29 02:50:00;;;;;;;9.07;7.70;;;9.60;99.90;;;;;;5078197;28;20463;-70
2022/09/29 02:52:38;;;;;;;9.47;7.07;;;9.60;99.90;;;;;;5077965;28;20915;-70
2022/09/29 02:55:11;;;;;;;11.07;7.97;;;9.70;99.90;;;;;;5078654;28;20878;-70
2022/09/29 02:57:47;;;;;;;8.23;7.03;;;9.70;99.90;;;;;;5094014;28;20540;-70
2022/09/29 03:00:16;;;;;;;9.37;7.57;;;9.70;99.90;;;;;;5100600;28;20899;-70
2022/09/29 03:02:44;;;;;;;8.60;7.30;;;9.70;99.90;;;;;;5098887;28;20453;-70
2022/09/29 03:05:13;;;;;;;7.93;6.73;;;9.80;99.90;;;;;;5098031;28;20487;-70
2022/09/29 03:07:42;;;;;;;8.67;7.23;;;9.70;99.90;;;;;;5098159;28;20464;-70
2022/09/29 03:10:10;;;;;;;9.03;7.70;;;9.80;99.90;;;;;;5098422;28;20473;-70
2022/09/29 03:12:37;;;;;;;10.30;8.40;;;9.80;99.90;;;;;;5097860;28;20496;-69
2022/09/29 03:15:08;;;;;;;9.40;8.40;;;9.80;99.90;;;;;;5097143;28;20453;-69
2022/09/29 03:17:35;;;;;;;11.50;7.93;;;9.70;99.90;;;;;;5097143;28;20452;-69
2022/09/29 03:20:02;;;;;;;8.83;7.70;;;9.70;99.90;;;;;;5096789;28;20453;-69
2022/09/29 03:22:29;;;;;;;9.53;7.97;;;9.80;99.90;;;;;;5099541;28;20496;-69
2022/09/29 03:24:57;;;;;;;9.80;8.37;;;9.80;99.90;;;;;;5097936;28;20479;-69
2022/09/29 03:27:24;;;;;;;11.57;8.83;;;9.80;99.90;;;;;;5097574;28;20544;-69
2022/09/29 03:29:51;;;;;;;12.77;8.93;;;9.80;99.90;;;;;;5098166;28;20567;-70
2022/09/29 03:32:18;;;;;;;15.73;8.63;;;9.80;99.90;;;;;;5096011;28;20457;-70
2022/09/29 03:34:45;;;;;;;11.03;8.13;;;9.80;99.90;;;;;;5082845;28;20454;-70
2022/09/29 03:37:12;;;;;;;13.20;9.60;;;9.80;99.90;;;;;;5093494;28;20460;-70
2022/09/29 03:39:38;;;;;;;11.60;9.30;;;9.80;99.90;;;;;;5098005;28;20503;-70
2022/09/29 03:42:07;;;;;;;12.50;9.03;;;9.80;99.90;;;;;;5099925;28;20748;-69
2022/09/29 03:44:34;;;;;;;10.93;9.30;;;9.80;99.90;;;;;;5097486;28;20545;-69
2022/09/29 03:47:00;;;;;;;10.60;9.10;;;9.80;99.90;;;;;;5096939;28;20851;-69
2022/09/29 03:49:27;;;;;;;10.87;9.70;;;9.80;99.90;;;;;;5096345;28;21018;-68
2022/09/29 03:51:54;;;;;;;10.93;9.17;;;9.80;99.90;;;;;;5096674;28;20453;-69
2022/09/29 03:54:23;;;;;;;11.80;10.23;;;9.80;99.90;;;;;;5096517;28;20464;-69
2022/09/29 03:56:49;;;;;;;11.20;9.60;;;9.80;99.90;;;;;;5096768;28;20990;-69
2022/09/29 03:59:18;;;;;;;12.20;9.83;;;9.80;99.90;;;;;;5096941;28;20453;-69
2022/09/29 04:01:45;;;;;;;12.83;9.30;;;9.80;99.90;;;;;;5097012;28;20458;-69
2022/09/29 04:04:11;;;;;;;11.73;9.20;;;9.80;99.90;;;;;;5097083;28;20548;-69
2022/09/29 04:06:38;;;;;;;10.37;9.10;;;9.80;99.90;;;;;;5096009;28;20560;-69
2022/09/29 04:09:05;;;;;;;12.97;9.47;;;9.90;99.90;;;;;;5096404;28;20548;-68
2022/09/29 04:11:32;;;;;;;10.17;9.07;;;9.90;99.90;;;;;;5096381;28;20477;-69
2022/09/29 04:13:59;;;;;;;10.10;8.77;;;9.80;99.90;;;;;;5096068;28;20453;-69
2022/09/29 04:16:27;;;;;;;13.40;10.40;;;9.90;99.90;;;;;;5095893;28;20977;-68
2022/09/29 04:18:54;;;;;;;10.27;8.83;;;9.80;99.90;;;;;;5096629;28;20457;-68
2022/09/29 04:21:21;;;;;;;10.30;9.20;;;9.80;99.90;;;;;;5096006;28;20485;-68
2022/09/29 04:23:48;;;;;;;11.63;9.53;;;9.80;99.90;;;;;;5095647;28;20464;-67
2022/09/29 04:26:15;;;;;;;11.03;8.60;;;9.80;99.90;;;;;;5095766;28;20522;-68
2022/09/29 04:28:42;;;;;;;11.80;9.30;;;9.80;99.90;;;;;;5095757;28;20457;-69
2022/09/29 04:31:09;;;;;;;10.93;9.30;;;9.80;99.90;;;;;;5095830;28;20487;-69
2022/09/29 04:33:38;;;;;;;12.20;9.47;;;9.80;99.90;;;;;;5095306;28;20454;-69
2022/09/29 04:36:05;;;;;;;10.93;9.23;;;9.80;99.90;;;;;;5074126;28;20515;-69
2022/09/29 04:38:32;;;;;;;11.37;9.43;;;9.90;99.90;;;;;;5075439;28;20872;-69
2022/09/29 04:40:59;;;;;;;14.10;10.03;;;9.80;99.90;;;;;;5075650;28;20485;-69
2022/09/29 04:43:26;;;;;;;12.47;9.63;;;9.80;99.90;;;;;;5075080;28;20458;-69
2022/09/29 04:45:53;;;;;;;10.53;9.40;;;9.90;99.90;;;;;;5075613;28;20472;-70
2022/09/29 04:48:20;;;;;;;10.60;9.10;;;9.90;99.90;;;;;;5076449;28;20468;-70
2022/09/29 04:50:50;;;;;;;12.10;10.33;;;9.90;99.90;;;;;;5076336;28;20561;-70
2022/09/29 04:53:17;;;;;;;12.97;10.30;;;9.90;99.90;;;;;;5075978;28;20911;-70
2022/09/29 04:55:44;;;;;;;15.80;10.97;;;9.90;99.90;;;;;;5075878;28;20458;-70
2022/09/29 04:58:11;;;;;;;12.63;10.57;;;9.90;99.90;;;;;;5076134;28;20790;-70
2022/09/29 05:00:37;;;;;;;10.57;9.47;;;9.90;99.90;;;;;;5075878;28;20787;-70
2022/09/29 05:03:04;;;;;;;14.23;10.23;;;9.90;99.90;;;;;;5076735;28;20464;-70
2022/09/29 05:05:31;;;;;;;10.80;9.33;;;9.90;99.90;;;;;;5075594;28;20482;-70
2022/09/29 05:08:02;;;;;;;11.50;10.27;;;9.90;99.90;;;;;;5075982;28;20566;-72
2022/09/29 05:10:29;;;;;;;12.37;10.20;;;9.90;99.90;;;;;;5075882;28;20462;-70
2022/09/29 05:12:56;;;;;;;12.40;9.90;;;9.90;99.90;;;;;;5078352;28;20470;-71
2022/09/29 05:15:23;;;;;;;16.67;10.20;;;9.90;99.90;;;;;;5097852;28;20518;-69
2022/09/29 05:17:50;;;;;;;11.60;9.67;;;9.80;99.90;;;;;;5096554;28;20457;-70
2022/09/29 05:20:17;;;;;;;10.47;9.30;;;9.80;99.90;;;;;;5096006;28;20940;-70
2022/09/29 05:22:44;;;;;;;15.53;10.70;;;9.90;99.90;;;;;;5096462;28;20461;-70
2022/09/29 05:25:12;;;;;;;11.80;10.00;;;9.80;99.90;;;;;;5095802;28;20485;-69
2022/09/29 05:27:39;;;;;;;10.73;8.90;;;9.90;99.90;;;;;;5096503;28;20482;-69
2022/09/29 05:30:07;;;;;;;19.27;10.47;;;9.90;99.90;;;;;;5096091;28;20799;-69
2022/09/29 05:32:34;;;;;;;13.13;10.17;;;9.90;99.90;;;;;;5095946;28;20462;-70
2022/09/29 05:35:02;;;;;;;13.10;10.23;;;9.90;99.90;;;;;;5095340;28;21020;-70
2022/09/29 05:37:29;;;;;;;12.97;9.87;;;9.90;99.90;;;;;;5092099;28;20752;-70
2022/09/29 05:39:56;;;;;;;12.73;10.57;;;10.00;99.90;;;;;;5095511;28;20549;-70
2022/09/29 05:42:24;;;;;;;14.83;10.90;;;10.00;99.90;;;;;;5095515;28;20463;-70
2022/09/29 05:44:51;;;;;;;17.50;11.70;;;10.00;99.90;;;;;;5095236;28;20518;-70
2022/09/29 05:47:18;;;;;;;17.80;10.77;;;10.00;99.90;;;;;;5095178;28;20463;-70
2022/09/29 05:49:45;;;;;;;13.27;11.23;;;10.10;99.90;;;;;;5095631;28;20523;-70
2022/09/29 05:52:12;;;;;;;16.77;11.57;;;10.10;99.90;;;;;;5095652;28;20464;-71
2022/09/29 05:54:38;;;;;;;12.90;10.67;;;10.20;99.90;;;;;;5095296;28;20848;-70
2022/09/29 05:57:05;;;;;;;14.80;11.50;;;10.20;99.90;;;;;;5095134;28;20460;-71
2022/09/29 05:59:33;;;;;;;15.83;10.70;;;10.20;99.90;;;;;;5095427;28;20547;-69
2022/09/29 06:02:00;;;;;;;18.40;10.90;;;10.30;99.90;;;;;;5095618;28;20459;-70
2022/09/29 06:04:27;;;;;;;15.00;9.77;;;10.30;99.90;;;;;;5095455;28;20465;-69
2022/09/29 06:06:56;;;;;;;17.53;11.23;;;10.40;99.90;;;;;;5095203;28;20452;-70
2022/09/29 06:09:44;;;;;;;14.80;11.30;;;10.40;99.90;;;;;;5095765;28;20504;-70
2022/09/29 06:12:11;;;;;;;13.90;10.50;;;10.40;99.90;;;;;;5094653;28;20532;-70
2022/09/29 06:14:39;;;;;;;16.93;10.47;;;10.40;99.90;;;;;;5095139;28;20543;-70
2022/09/29 06:17:06;;;;;;;19.90;11.80;;;10.40;99.90;;;;;;5097023;28;20457;-70
2022/09/29 06:19:32;;;;;;;16.53;11.30;;;10.50;99.90;;;;;;5096319;28;20453;-70
2022/09/29 06:21:59;;;;;;;14.53;10.17;;;10.50;99.90;;;;;;5096170;28;20453;-70
2022/09/29 06:24:26;;;;;;;16.63;10.90;;;10.60;99.90;;;;;;5095899;28;20929;-69
2022/09/29 06:26:53;;;;;;;13.00;10.60;;;10.60;99.90;;;;;;5096355;28;20457;-69
2022/09/29 06:29:20;;;;;;;13.73;10.10;;;10.70;99.90;;;;;;5095243;28;20539;-67
2022/09/29 06:31:48;;;;;;;14.53;10.73;;;10.70;99.90;;;;;;5093932;28;20491;-69
2022/09/29 06:34:15;;;;;;;18.73;11.30;;;10.70;99.90;;;;;;5094484;28;20483;-70
2022/09/29 06:39:28;;;;;;;14.57;10.30;;;10.60;99.90;;;;;;5094170;28;20421;-69
2022/09/29 06:41:55;;;;;;;15.00;10.80;;;10.60;99.90;;;;;;5096014;28;20488;-69
2022/09/29 06:44:23;;;;;;;12.93;10.47;;;10.60;99.90;;;;;;5094607;28;20457;-69
2022/09/29 06:46:52;;;;;;;13.77;10.20;;;10.60;99.90;;;;;;5095577;28;20755;-69
2022/09/29 06:49:20;;;;;;;17.47;10.87;;;10.60;99.90;;;;;;5094258;28;20536;-69
2022/09/29 06:51:47;;;;;;;13.20;10.77;;;10.70;99.90;;;;;;5094031;28;20491;-68
2022/09/29 06:54:16;;;;;;;13.43;10.30;;;10.70;99.90;;;;;;5095808;28;20552;-71
2022/09/29 06:56:46;;;;;;;12.57;10.63;;;10.80;99.90;;;;;;5098653;28;20533;-68
2022/09/29 06:59:12;;;;;;;12.33;10.03;;;10.80;99.90;;;;;;5100283;28;20484;-69
2022/09/29 07:01:39;;;;;;;16.97;11.60;;;10.90;99.90;;;;;;5099711;28;20536;-70
2022/09/29 07:04:08;;;;;;;18.57;12.00;;;11.00;99.90;;;;;;5099298;28;20453;-70
2022/09/29 07:06:34;;;;;;;13.80;10.20;;;11.00;99.90;;;;;;5098748;28;20491;-69
2022/09/29 07:09:01;;;;;;;14.93;10.87;;;11.10;99.90;;;;;;5099425;28;20453;-70
2022/09/29 07:11:28;;;;;;;16.13;10.90;;;11.10;99.90;;;;;;5099579;28;20796;-70
2022/09/29 07:13:55;;;;;;;14.47;10.87;;;11.10;99.90;;;;;;5099336;28;20463;-70
2022/09/29 07:16:23;;;;;;;16.80;11.60;;;11.20;99.90;;;;;;5101428;28;20461;-70
2022/09/29 07:18:50;;;;;;;11.43;9.30;;;11.20;99.90;;;;;;5101268;28;20469;-71
2022/09/29 07:21:20;;;;;;;15.03;10.83;;;11.20;99.90;;;;;;5098810;28;20556;-70
2022/09/29 07:23:47;;;;;;;14.80;11.40;;;11.30;99.90;;;;;;5099898;28;20474;-70
2022/09/29 07:26:16;;;;;;;12.90;9.90;;;11.20;99.90;;;;;;5099573;28;20458;-71
2022/09/29 07:28:43;;;;;;;20.63;11.93;;;11.20;99.90;;;;;;5097328;28;20905;-69
2022/09/29 07:31:12;;;;;;;16.27;12.03;;;11.20;99.90;;;;;;5096598;28;20481;-70
2022/09/29 07:33:38;;;;;;;17.00;12.00;;;11.20;99.90;;;;;;5096958;28;20453;-69
2022/09/29 07:36:06;;;;;;;15.27;12.00;;;11.30;99.90;;;;;;5097417;28;20912;-69
2022/09/29 07:38:34;;;;;;;16.43;11.27;;;11.30;99.90;;;;;;5096781;28;20783;-69
2022/09/29 07:41:02;;;;;;;18.20;11.73;;;11.40;99.90;;;;;;5096827;28;20540;-69
2022/09/29 07:43:29;;;;;;;13.20;11.37;;;11.40;99.90;;;;;;5096963;28;20468;-69
2022/09/29 07:45:56;;;;;;;14.00;10.43;;;11.40;99.90;;;;;;5096681;28;20463;-69
2022/09/29 07:48:23;;;;;;;14.73;10.93;;;11.40;99.90;;;;;;5096755;28;20660;-68
2022/09/29 07:50:51;;;;;;;15.30;10.77;;;11.40;99.90;;;;;;5096444;28;20469;-69
2022/09/29 07:53:18;;;;;;;20.60;12.10;;;11.50;99.90;;;;;;5095849;28;20453;-69
2022/09/29 07:55:46;;;;;;;14.53;11.00;;;11.50;99.90;;;;;;5096550;28;20824;-69
2022/09/29 07:58:13;;;;;;;16.53;11.30;;;11.50;99.90;;;;;;5096291;28;20527;-69
2022/09/29 08:00:40;;;;;;;14.63;11.53;;;11.60;99.90;;;;;;5096346;28;20786;-69
2022/09/29 08:03:07;;;;;;;15.80;11.27;;;11.60;99.90;;;;;;5096546;28;20457;-69
2022/09/29 08:05:35;;;;;;;19.40;11.63;;;11.70;99.90;;;;;;5096580;28;20973;-70
2022/09/29 08:08:02;;;;;;;16.37;11.53;;;11.70;99.90;;;;;;5097420;28;20457;-69
2022/09/29 08:10:30;;;;;;;15.30;12.37;;;11.60;99.90;;;;;;5098754;28;20854;-70
2022/09/29 08:12:59;;;;;;;16.70;12.50;;;11.60;99.90;;;;;;5100208;28;20548;-70
2022/09/29 08:15:26;;;;;;;16.10;11.83;;;11.60;99.90;;;;;;5099296;28;20555;-70
2022/09/29 08:17:54;;;;;;;17.73;11.97;;;11.70;99.90;;;;;;5097605;28;20540;-70
2022/09/29 08:20:21;;;;;;;20.27;12.73;;;11.70;99.90;;;;;;5098427;28;20461;-70
2022/09/29 08:22:48;;;;;;;14.70;11.33;;;11.70;99.90;;;;;;5098205;28;20540;-70
2022/09/29 08:25:15;;;;;;;17.17;12.20;;;11.70;99.90;;;;;;5098642;28;20532;-70
2022/09/29 08:27:42;;;;;;;16.57;12.37;;;11.70;99.90;;;;;;5099669;28;20518;-70
2022/09/29 08:30:12;;;;;;;20.90;12.30;;;11.70;99.90;;;;;;5099149;28;20454;-70
2022/09/29 08:32:39;;;;;;;15.73;12.63;;;11.80;99.90;;;;;;5098171;28;20477;-70
2022/09/29 08:35:07;;;;;;;16.20;12.93;;;11.80;99.90;;;;;;5097862;28;20521;-70
2022/09/29 08:37:34;;;;;;;17.70;12.47;;;11.80;99.90;;;;;;5097715;28;20453;-71
2022/09/29 08:40:01;;;;;;;17.43;12.57;;;12.00;99.90;;;;;;5098577;28;20453;-70
2022/09/29 08:42:43;;;;;;;15.90;12.60;;;12.00;99.90;;;;;;5098334;28;20933;-69
2022/09/29 08:45:18;;;;;;;15.53;11.87;;;12.00;99.90;;;;;;5100820;28;20452;-69
2022/09/29 08:47:51;;;;;;;16.50;12.70;;;12.00;99.90;;;;;;5100708;28;20469;-70
2022/09/29 08:50:30;;;;;;;16.40;12.33;;;12.10;99.90;;;;;;5101142;28;20502;-70
2022/09/29 08:53:01;;;;;;;18.60;12.40;;;12.10;99.90;;;;;;5097589;28;20853;-69
2022/09/29 08:55:39;;;;;;;17.53;13.57;;;12.20;99.90;;;;;;5095260;28;20849;-70
2022/09/29 08:58:11;;;;;;;16.83;12.13;;;12.30;99.90;;;;;;5095540;28;20506;-69
2022/09/29 09:00:44;;;;;;;17.17;12.10;;;12.40;99.90;;;;;;5095497;28;20537;-68
2022/09/29 09:03:28;;;;;;;18.47;12.00;;;12.50;99.90;;;;;;5095453;28;20441;-69
2022/09/29 09:06:11;;;;;;;17.03;12.27;;;12.50;99.90;;;;;;5094998;28;20570;-69
2022/09/29 09:08:56;;;;;;;17.00;12.50;;;12.50;99.90;;;;;;5095749;28;20526;-68
2022/09/29 09:11:42;;;;;;;13.77;12.07;;;12.60;99.90;;;;;;5096308;28;20472;-70
2022/09/29 09:14:21;;;;;;;17.97;12.73;;;12.60;99.90;;;;;;5095268;28;20492;-68
2022/09/29 09:17:02;;;;;;;16.07;12.57;;;12.70;99.90;;;;;;5095307;28;20488;-68
2022/09/29 09:19:45;;;;;;;15.10;11.97;;;12.80;99.90;;;;;;5094781;28;20484;-70
2022/09/29 09:22:21;;;;;;;16.90;12.80;;;12.80;99.90;;;;;;5095025;28;20491;-69
2022/09/29 09:24:56;;;;;;;17.50;13.30;;;12.90;99.90;;;;;;5094875;28;20449;-69
2022/09/29 09:27:27;;;;;;;15.00;12.40;;;13.00;99.90;;;;;;5094946;28;20784;-69
2022/09/29 09:30:03;;;;;;;14.83;11.90;;;13.00;99.90;;;;;;5094858;28;20442;-69
2022/09/29 09:32:37;;;;;;;17.23;12.73;;;13.20;99.90;;;;;;5094865;28;20488;-68
2022/09/29 09:35:16;;;;;;;14.30;12.13;;;13.40;99.90;;;;;;5097897;28;20549;-68
2022/09/29 09:37:45;;;;;;;16.40;12.43;;;13.60;99.90;;;;;;5098817;28;20449;-68
2022/09/29 09:40:17;;;;;;;13.70;11.73;;;13.50;99.90;;;;;;5094855;28;20905;-70
2022/09/29 09:42:52;;;;;;;15.67;11.60;;;13.40;99.90;;;;;;5095210;28;20867;-69
2022/09/29 09:45:27;;;;;;;19.40;13.43;;;13.40;99.90;;;;;;5094702;28;20519;-68
2022/09/29 09:47:59;;;;;;;16.43;11.07;;;13.50;99.90;;;;;;5095078;28;20465;-69
2022/09/29 09:50:27;;;;;;;17.00;11.57;;;13.50;99.90;;;;;;5094480;28;20441;-69
2022/09/29 09:52:59;;;;;;;14.43;12.30;;;13.60;99.90;;;;;;5094392;28;20481;-69
2022/09/29 09:55:29;;;;;;;14.60;11.20;;;13.60;99.90;;;;;;5094528;28;20520;-69
2022/09/29 09:58:06;;;;;;;13.37;11.30;;;13.60;99.90;;;;;;5094084;28;20450;-68
2022/09/29 10:00:37;;;;;;;13.10;11.03;;;13.70;99.90;;;;;;5094590;28;20841;-69
2022/09/29 10:03:08;;;;;;;17.33;12.53;;;13.80;99.90;;;;;;5094219;28;20743;-69
2022/09/29 10:05:37;;;;;;;15.90;12.40;;;13.80;99.90;;;;;;5093801;28;20480;-69
2022/09/29 10:08:05;;;;;;;19.23;14.97;;;13.90;99.90;;;;;;5093870;28;20457;-68
2022/09/29 10:10:33;;;;;;;16.87;11.40;;;13.90;99.90;;;;;;5094408;28;20566;-69
2022/09/29 10:13:05;;;;;;;14.77;11.50;;;14.00;99.90;;;;;;5095796;28;20504;-69
2022/09/29 10:15:36;;;;;;;12.10;10.60;;;14.10;99.90;;;;;;5095652;28;20445;-69
2022/09/29 10:18:12;;;;;;;13.30;10.50;;;14.20;99.90;;;;;;5094460;28;20500;-69
2022/09/29 10:20:40;;;;;;;12.87;9.63;;;14.30;99.90;;;;;;5094294;28;20452;-69
2022/09/29 10:23:28;;;;;;;10.27;9.10;;;14.30;99.90;;;;;;5096416;28;20454;-69
2022/09/29 10:25:59;;;;;;;12.93;10.30;;;14.40;99.90;;;;;;5095311;28;20454;-69
2022/09/29 10:28:30;;;;;;;12.37;9.00;;;14.50;99.90;;;;;;5094510;28;20781;-70
2022/09/29 10:30:57;;;;;;;11.00;9.37;;;14.60;99.90;;;;;;5095808;28;20536;-69
2022/09/29 10:33:26;;;;;;;7.37;6.70;;;14.60;99.90;;;;;;5097749;28;20491;-69
2022/09/29 10:36:07;;;;;;;9.50;6.90;;;14.60;99.90;;;;;;5097780;28;20488;-69
2022/09/29 10:38:36;;;;;;;9.00;7.20;;;14.50;99.90;;;;;;5097892;28;20764;-69
2022/09/29 10:41:05;;;;;;;7.30;6.20;;;14.40;99.90;;;;;;5098964;28;20453;-69
2022/09/29 10:43:36;;;;;;;7.80;6.57;;;14.40;99.90;;;;;;5098547;28;20874;-69
2022/09/29 10:46:05;;;;;;;7.77;6.97;;;14.30;99.90;;;;;;5098485;28;20529;-70
2022/09/29 10:48:33;;;;;;;11.67;7.97;;;14.30;99.90;;;;;;5097743;28;20547;-70
2022/09/29 10:51:02;;;;;;;8.40;7.33;;;14.30;99.90;;;;;;5097760;28;20559;-68
2022/09/29 10:53:34;;;;;;;10.13;7.70;;;14.40;99.90;;;;;;5097362;28;20480;-68
2022/09/29 10:56:07;;;;;;;9.40;7.03;;;14.40;99.90;;;;;;5098790;28;20540;-69
2022/09/29 10:58:36;;;;;;;7.97;6.37;;;14.30;99.90;;;;;;5100173;28;20528;-69
2022/09/29 11:01:07;;;;;;;7.60;6.77;;;14.40;99.90;;;;;;5098113;28;20549;-69
2022/09/29 11:03:39;;;;;;;8.50;7.60;;;14.50;99.90;;;;;;5097605;28;20438;-69
2022/09/29 11:06:10;;;;;;;10.43;6.70;;;14.60;99.90;;;;;;5097513;28;20857;-69
2022/09/29 11:08:56;;;;;;;10.20;6.60;;;14.70;99.90;;;;;;5098277;28;20452;-69
2022/09/29 11:11:27;;;;;;;6.57;5.77;;;14.70;99.90;;;;;;5097247;28;20894;-69
2022/09/29 11:13:55;;;;;;;10.90;6.50;;;14.70;99.90;;;;;;5098474;28;20438;-69
2022/09/29 11:16:29;;;;;;;8.40;6.17;;;14.70;99.90;;;;;;5099702;28;20453;-69
2022/09/29 11:19:01;;;;;;;6.77;6.17;;;14.70;99.90;;;;;;5097286;28;20437;-68
2022/09/29 11:22:05;;;;;;;6.77;5.97;;;14.60;99.90;;;;;;5098631;28;20469;-69
2022/09/29 11:24:58;;;;;;;8.07;5.80;;;14.50;99.90;;;;;;5097138;28;20543;-69
2022/09/29 11:27:37;;;;;;;6.70;5.57;;;14.40;99.90;;;;;;5096557;28;20503;-68
2022/09/29 11:30:08;;;;;;;6.97;6.27;;;14.30;99.90;;;;;;5096858;28;20461;-70
2022/09/29 11:32:49;;;;;;;15.73;10.07;;;14.30;99.90;;;;;;5096445;28;20473;-69
2022/09/29 11:35:32;;;;;;;7.83;6.90;;;14.20;99.90;;;;;;5097077;28;20452;-69
2022/09/29 11:38:28;;;;;;;6.40;5.80;;;14.20;99.90;;;;;;5096832;28;20452;-69
2022/09/29 11:41:06;;;;;;;5.90;5.30;;;14.30;99.90;;;;;;5094044;28;20468;-69
2022/09/29 11:43:46;;;;;;;4.97;4.57;;;14.50;99.90;;;;;;5096763;28;20932;-69
2022/09/29 11:46:44;;;;;;;13.60;5.73;;;14.80;99.90;;;;;;5096613;28;20476;-70
2022/09/29 11:49:41;;;;;;;6.07;5.47;;;15.00;99.90;;;;;;5077142;28;20453;-70
2022/09/29 11:52:26;;;;;;;6.97;5.17;;;15.10;99.90;;;;;;5097779;28;20465;-70
2022/09/29 11:55:16;;;;;;;6.33;4.80;;;15.20;99.90;;;;;;5097709;28;20469;-71
2022/09/29 11:57:55;;;;;;;5.10;4.60;;;15.20;99.90;;;;;;5097810;28;20552;-70
2022/09/29 12:00:35;;;;;;;6.83;5.33;;;15.10;99.90;;;;;;5097554;28;20980;-70
2022/09/29 12:03:29;;;;;;;9.23;6.30;;;14.90;99.90;;;;;;5097825;28;20438;-70
2022/09/29 12:06:15;;;;;;;5.60;5.00;;;14.90;99.90;;;;;;5097653;28;20569;-70
2022/09/29 12:08:59;;;;;;;8.57;4.60;;;14.90;99.90;;;;;;5098105;28;20479;-70
2022/09/29 12:11:34;;;;;;;9.90;6.67;;;14.90;99.90;;;;;;5097823;28;20453;-71
2022/09/29 12:14:10;;;;;;;5.90;5.40;;;15.00;99.90;;;;;;5097639;28;20548;-71
2022/09/29 12:16:41;;;;;;;5.73;5.23;;;15.00;99.90;;;;;;5097403;28;20473;-71
2022/09/29 12:19:13;;;;;;;5.30;4.20;;;15.10;99.90;;;;;;5097709;28;20525;-71
2022/09/29 12:21:43;;;;;;;9.30;4.23;;;15.10;99.90;;;;;;5098262;28;20445;-69
2022/09/29 12:24:17;;;;;;;5.67;5.17;;;15.00;99.90;;;;;;5097316;28;20518;-68
2022/09/29 12:26:46;;;;;;;5.50;4.63;;;15.00;99.90;;;;;;5096246;28;20473;-70
2022/09/29 12:29:20;;;;;;;5.13;4.63;;;15.10;99.90;;;;;;5096117;28;20534;-69
2022/09/29 12:31:50;;;;;;;5.10;4.60;;;15.20;99.90;;;;;;5095883;28;20437;-70
2022/09/29 12:34:22;;;;;;;5.80;5.10;;;15.20;99.90;;;;;;5096159;28;20450;-70
2022/09/29 12:37:01;;;;;;;5.90;5.30;;;15.30;99.90;;;;;;5096076;28;20438;-70
2022/09/29 12:39:36;;;;;;;5.10;4.60;;;15.40;99.90;;;;;;5095920;28;20442;-69
2022/09/29 12:42:16;;;;;;;5.40;4.90;;;15.50;99.90;;;;;;5096712;28;20792;-69
2022/09/29 12:44:49;;;;;;;5.27;4.77;;;15.60;99.90;;;;;;5096052;28;20438;-69
2022/09/29 12:47:24;;;;;;;6.00;4.70;;;16.10;99.90;;;;;;5095843;28;20532;-69
2022/09/29 12:50:01;;;;;;;5.20;4.70;;;16.70;99.90;;;;;;5095615;28;20730;-70
2022/09/29 12:52:37;;;;;;;5.27;4.63;;;17.10;99.90;;;;;;5095346;28;20814;-73
2022/09/29 12:55:16;;;;;;;4.70;4.20;;;17.90;99.90;;;;;;5096492;28;20524;-74
2022/09/29 12:57:46;;;;;;;6.57;4.57;;;18.80;99.90;;;;;;5098077;28;20842;-74
2022/09/29 13:00:15;;;;;;;3.77;3.47;;;20.00;99.90;;;;;;5097974;28;20544;-74
2022/09/29 13:03:06;;;;;;;4.70;4.30;;;20.60;99.90;;;;;;5098227;28;20541;-75
2022/09/29 13:05:49;;;;;;;4.77;4.37;;;20.70;99.90;;;;;;5097130;28;20576;-69